Time;durP1;ratioP1;P1;durP2;ratioP2;P2;SDS_P1;SDS_P2;PMS_P1;PMS_P2;Temp;Humidity;BMP_temperature;BMP_pressure;BME280_temperature;BME280_humidity;BME280_pressure;Samples;Min_cycle;Max_cycle;Signal;HPM_P1;HPM_P2
2023/04/20 00:02:20;;;;;;;1.98;1.63;;;4.00;99.90;;;;;;5022220;28;20060;-63
2023/04/20 00:04:47;;;;;;;2.80;1.48;;;4.00;99.90;;;;;;5013171;28;20141;-62
2023/04/20 00:07:15;;;;;;;2.15;1.48;;;4.00;99.90;;;;;;5015280;28;20059;-65
2023/04/20 00:09:42;;;;;;;2.22;1.13;;;4.00;99.90;;;;;;4994873;28;20054;-62
2023/04/20 00:12:09;;;;;;;4.10;1.75;;;3.90;99.90;;;;;;5014225;28;20053;-64
2023/04/20 00:14:36;;;;;;;2.42;1.77;;;3.90;99.90;;;;;;5007857;28;20447;-64
2023/04/20 00:17:03;;;;;;;2.47;1.20;;;3.90;99.90;;;;;;5014288;28;20080;-62
2023/04/20 00:19:32;;;;;;;2.55;1.35;;;3.90;99.90;;;;;;4999925;28;20056;-62
2023/04/20 00:21:59;;;;;;;1.83;1.23;;;3.80;99.90;;;;;;5000311;28;20058;-68
2023/04/20 00:24:26;;;;;;;1.98;1.05;;;3.80;99.90;;;;;;5020928;28;20112;-67
2023/04/20 00:26:53;;;;;;;3.92;1.45;;;3.80;99.90;;;;;;5023133;28;20140;-63
2023/04/20 00:29:21;;;;;;;2.13;1.10;;;3.70;99.90;;;;;;5011480;28;20144;-71
2023/04/20 00:31:48;;;;;;;7.78;1.83;;;3.70;99.90;;;;;;4997011;28;20416;-67
2023/04/20 00:34:15;;;;;;;5.45;1.40;;;3.80;99.90;;;;;;5012879;28;20137;-66
2023/04/20 00:36:42;;;;;;;5.65;1.40;;;3.70;99.90;;;;;;5006147;28;20093;-67
2023/04/20 00:39:09;;;;;;;2.85;1.38;;;3.70;99.90;;;;;;5026569;28;20053;-65
2023/04/20 00:41:37;;;;;;;1.80;1.52;;;3.70;99.90;;;;;;5019383;28;20080;-62
2023/04/20 00:44:06;;;;;;;2.40;1.60;;;3.70;99.90;;;;;;5016469;28;20049;-62
2023/04/20 00:46:33;;;;;;;5.20;1.60;;;3.60;99.90;;;;;;5024392;28;20141;-67
2023/04/20 00:49:00;;;;;;;5.10;2.17;;;3.60;99.90;;;;;;5006359;28;20419;-62
2023/04/20 00:51:28;;;;;;;3.03;1.55;;;3.50;99.90;;;;;;5017991;28;20145;-62
2023/04/20 00:53:57;;;;;;;3.10;1.77;;;3.60;99.90;;;;;;4997722;28;20575;-70
2023/04/20 00:56:24;;;;;;;4.50;1.77;;;3.60;99.90;;;;;;4995847;28;20070;-68
2023/04/20 00:58:51;;;;;;;2.53;1.30;;;3.60;99.90;;;;;;4994509;28;20133;-62
2023/04/20 01:01:19;;;;;;;2.28;1.15;;;3.50;99.90;;;;;;5007182;28;20828;-61
2023/04/20 01:03:45;;;;;;;1.95;1.48;;;3.50;99.90;;;;;;5014168;28;20103;-61
2023/04/20 01:06:13;;;;;;;2.33;1.40;;;3.40;99.90;;;;;;5012294;28;20487;-60
2023/04/20 01:08:50;;;;;;;1.45;1.00;;;3.40;99.90;;;;;;5004806;28;20123;-64
2023/04/20 01:11:17;;;;;;;2.13;1.70;;;3.40;99.90;;;;;;5004184;28;20568;-62
2023/04/20 01:13:44;;;;;;;2.60;1.27;;;3.40;99.90;;;;;;5002969;28;20056;-65
2023/04/20 01:16:11;;;;;;;3.65;1.80;;;3.30;99.90;;;;;;5004814;28;20053;-66
2023/04/20 01:18:43;;;;;;;3.72;1.38;;;3.30;99.90;;;;;;4994644;28;20068;-68
2023/04/20 01:21:11;;;;;;;2.97;1.38;;;3.30;99.90;;;;;;5013213;28;20573;-62
2023/04/20 01:23:38;;;;;;;1.73;1.42;;;3.30;99.90;;;;;;5013738;28;20045;-63
2023/04/20 01:26:10;;;;;;;2.92;1.70;;;3.30;99.90;;;;;;5020723;28;20092;-65
2023/04/20 01:28:37;;;;;;;3.40;1.55;;;3.30;99.90;;;;;;5018081;28;20124;-68
2023/04/20 01:31:06;;;;;;;3.15;1.65;;;3.30;99.90;;;;;;5022635;28;20049;-64
2023/04/20 01:33:33;;;;;;;1.75;1.65;;;3.30;99.90;;;;;;5040234;28;20084;-67
2023/04/20 01:36:00;;;;;;;5.93;2.25;;;3.30;99.90;;;;;;5019942;28;20055;-64
2023/04/20 01:38:30;;;;;;;3.08;2.55;;;3.30;99.90;;;;;;5016511;28;20387;-62
2023/04/20 01:41:10;;;;;;;3.88;2.00;;;3.30;99.90;;;;;;5019124;28;20097;-67
2023/04/20 01:43:38;;;;;;;1.92;1.63;;;3.20;99.90;;;;;;5010563;28;20455;-67
2023/04/20 01:46:05;;;;;;;4.93;1.77;;;3.20;99.90;;;;;;5006979;28;20063;-66
2023/04/20 01:48:32;;;;;;;3.90;1.60;;;3.10;99.90;;;;;;5018244;28;20088;-61
2023/04/20 01:51:00;;;;;;;2.15;1.23;;;3.10;99.90;;;;;;5014578;28;20060;-72
2023/04/20 01:53:26;;;;;;;2.45;1.30;;;3.10;99.90;;;;;;5023386;28;20049;-65
2023/04/20 01:55:54;;;;;;;2.35;1.77;;;3.00;99.90;;;;;;5017561;28;20652;-61
2023/04/20 01:58:21;;;;;;;1.95;1.55;;;3.00;99.90;;;;;;5021797;28;20068;-65
2023/04/20 02:00:49;;;;;;;4.90;1.67;;;2.90;99.90;;;;;;5011318;28;20070;-64
2023/04/20 02:03:16;;;;;;;3.42;1.60;;;2.90;99.90;;;;;;5015748;28;20061;-67
2023/04/20 02:05:43;;;;;;;2.33;1.75;;;2.80;99.90;;;;;;5001585;28;20513;-64
2023/04/20 02:08:10;;;;;;;3.40;1.98;;;2.80;99.90;;;;;;5004117;28;20046;-63
2023/04/20 02:10:38;;;;;;;3.50;2.30;;;2.80;99.90;;;;;;5004707;28;20131;-67
2023/04/20 02:13:05;;;;;;;3.33;1.75;;;2.70;99.90;;;;;;5021130;28;20489;-61
2023/04/20 02:15:32;;;;;;;5.80;1.80;;;2.60;99.90;;;;;;5011842;28;20087;-61
2023/04/20 02:17:59;;;;;;;5.13;2.35;;;2.60;99.90;;;;;;5002161;28;20077;-69
2023/04/20 02:20:26;;;;;;;4.25;2.08;;;2.60;99.90;;;;;;4996397;28;20550;-66
2023/04/20 02:22:53;;;;;;;7.20;2.22;;;2.60;99.90;;;;;;5010843;28;20606;-67
2023/04/20 02:25:20;;;;;;;1.88;1.50;;;2.60;99.90;;;;;;5004240;28;20060;-68
2023/04/20 02:27:48;;;;;;;3.83;1.80;;;2.60;99.90;;;;;;5015412;28;20507;-65
2023/04/20 02:30:15;;;;;;;4.05;1.77;;;2.60;99.90;;;;;;5013673;28;20054;-65
2023/04/20 02:32:42;;;;;;;4.65;1.90;;;2.60;99.90;;;;;;5009732;28;20046;-62
2023/04/20 02:35:09;;;;;;;4.72;2.35;;;2.60;99.90;;;;;;5005211;28;20082;-70
2023/04/20 02:37:36;;;;;;;3.05;2.08;;;2.60;99.90;;;;;;4995873;28;20050;-66
2023/04/20 02:40:04;;;;;;;2.15;1.95;;;2.60;99.90;;;;;;5021146;28;20051;-66
2023/04/20 02:42:31;;;;;;;4.80;2.00;;;2.60;99.90;;;;;;5025351;28;20480;-61
2023/04/20 02:45:00;;;;;;;6.05;2.03;;;2.60;99.90;;;;;;5022216;28;20140;-64
2023/04/20 02:47:27;;;;;;;3.63;2.15;;;2.70;99.90;;;;;;4999572;28;20065;-65
2023/04/20 02:49:54;;;;;;;4.07;2.38;;;2.70;99.90;;;;;;5003253;28;20081;-69
2023/04/20 02:52:22;;;;;;;3.05;2.22;;;2.70;99.90;;;;;;5006012;28;20077;-61
2023/04/20 02:54:49;;;;;;;3.70;1.92;;;2.70;99.90;;;;;;5021948;28;20454;-73
2023/04/20 02:57:16;;;;;;;2.75;2.45;;;2.70;99.90;;;;;;5018253;28;20057;-67
2023/04/20 02:59:43;;;;;;;7.32;2.97;;;2.70;99.90;;;;;;5026504;28;20132;-67
2023/04/20 03:02:16;;;;;;;7.07;2.20;;;2.70;99.90;;;;;;5017263;28;20137;-65
2023/04/20 03:04:43;;;;;;;4.32;2.17;;;2.70;99.90;;;;;;5021187;28;20042;-62
2023/04/20 03:07:17;;;;;;;5.80;3.08;;;2.60;99.90;;;;;;5031495;28;20108;-65
2023/04/20 03:09:46;;;;;;;6.60;2.35;;;2.70;99.90;;;;;;5017664;28;20045;-65
2023/04/20 03:12:21;;;;;;;5.13;3.15;;;2.70;99.90;;;;;;5016332;28;20057;-65
2023/04/20 03:14:51;;;;;;;3.05;2.72;;;2.70;99.90;;;;;;5019370;28;20049;-68
2023/04/20 03:17:23;;;;;;;3.40;2.10;;;2.70;99.90;;;;;;5006921;28;20046;-61
2023/04/20 03:19:50;;;;;;;3.22;2.40;;;2.70;99.90;;;;;;5006359;28;20080;-65
2023/04/20 03:22:19;;;;;;;3.88;3.03;;;2.70;99.90;;;;;;5000466;28;20076;-61
2023/04/20 03:24:51;;;;;;;6.07;2.58;;;2.70;99.90;;;;;;5007205;28;20049;-70
2023/04/20 03:27:40;;;;;;;4.28;1.98;;;2.70;99.90;;;;;;5017833;28;20091;-69
2023/04/20 03:30:10;;;;;;;;;;;2.70;99.90;;;;;;5021436;28;20080;-65
2023/04/20 03:32:37;;;;;;;3.75;2.08;;;2.70;99.90;;;;;;5024539;28;19929;-61
2023/04/20 03:35:05;;;;;;;5.63;2.25;;;2.70;99.90;;;;;;5019276;28;20057;-61
2023/04/20 03:37:32;;;;;;;3.85;2.10;;;2.80;99.90;;;;;;5019314;28;20577;-63
2023/04/20 03:39:59;;;;;;;4.68;2.83;;;2.80;99.90;;;;;;5020737;28;20057;-73
2023/04/20 03:42:26;;;;;;;5.00;2.67;;;2.80;99.90;;;;;;5023141;28;20393;-64
2023/04/20 03:44:53;;;;;;;6.53;2.70;;;2.80;99.90;;;;;;5012590;28;20041;-65
2023/04/20 03:47:20;;;;;;;5.47;2.45;;;2.80;99.90;;;;;;5026198;28;20409;-65
2023/04/20 03:49:49;;;;;;;3.95;1.95;;;2.80;99.90;;;;;;5021609;28;20776;-62
2023/04/20 03:52:16;;;;;;;2.72;2.42;;;2.80;99.90;;;;;;5010808;28;20144;-64
2023/04/20 03:54:43;;;;;;;4.07;2.42;;;2.80;99.90;;;;;;4995769;28;20058;-66
2023/04/20 03:57:13;;;;;;;4.13;2.17;;;2.80;99.90;;;;;;4997260;28;20066;-66
2023/04/20 03:59:41;;;;;;;4.25;2.72;;;2.80;99.90;;;;;;5014684;28;20112;-64
2023/04/20 04:02:12;;;;;;;4.72;2.45;;;2.90;99.90;;;;;;5000485;28;20144;-68
2023/04/20 04:04:41;;;;;;;4.38;2.22;;;2.90;99.90;;;;;;5023530;28;20512;-67
2023/04/20 04:07:08;;;;;;;5.60;2.58;;;2.90;99.90;;;;;;5017630;28;20092;-63
2023/04/20 04:09:37;;;;;;;5.90;2.60;;;3.00;99.90;;;;;;5013929;28;20061;-68
2023/04/20 04:12:06;;;;;;;3.63;2.83;;;3.00;99.90;;;;;;5010595;28;20049;-66
2023/04/20 04:14:34;;;;;;;4.72;2.92;;;3.10;99.90;;;;;;5017374;28;20045;-62
2023/04/20 04:17:01;;;;;;;6.00;3.05;;;3.10;99.90;;;;;;5023592;28;20762;-69
2023/04/20 04:19:30;;;;;;;9.20;4.00;;;3.10;99.90;;;;;;5024836;28;20046;-71
2023/04/20 04:21:57;;;;;;;5.18;2.85;;;3.10;99.90;;;;;;4994178;28;20054;-62
2023/04/20 04:24:25;;;;;;;4.63;3.28;;;3.20;99.90;;;;;;4999948;28;20053;-65
2023/04/20 04:27:04;;;;;;;5.28;3.25;;;3.20;99.90;;;;;;5010945;28;20060;-74
2023/04/20 04:29:37;;;;;;;6.38;2.92;;;3.30;99.90;;;;;;5020046;28;20653;-66
2023/04/20 04:32:08;;;;;;;4.45;2.70;;;3.40;99.90;;;;;;5015173;28;20134;-66
2023/04/20 04:34:36;;;;;;;4.10;2.83;;;3.40;99.90;;;;;;5005161;28;20060;-62
2023/04/20 04:37:03;;;;;;;3.67;2.75;;;3.50;99.90;;;;;;5000846;28;20058;-63
2023/04/20 04:39:45;;;;;;;13.35;3.28;;;3.60;99.90;;;;;;5010448;28;20137;-64
2023/04/20 04:42:18;;;;;;;7.47;2.40;;;3.60;99.90;;;;;;5037516;28;20717;-62
2023/04/20 04:44:46;;;;;;;6.85;4.13;;;3.60;99.90;;;;;;5005968;28;20042;-64
2023/04/20 04:47:20;;;;;;;12.23;3.50;;;3.70;99.90;;;;;;5006917;28;20482;-67
2023/04/20 04:49:48;;;;;;;4.03;2.40;;;3.70;99.90;;;;;;5012772;28;20049;-65
2023/04/20 04:52:15;;;;;;;12.88;2.50;;;3.80;99.90;;;;;;5008037;28;20507;-69
2023/04/20 04:54:42;;;;;;;5.22;2.47;;;3.80;99.90;;;;;;5025760;28;20046;-67
2023/04/20 04:57:09;;;;;;;3.33;2.30;;;3.80;99.90;;;;;;5018889;28;20053;-66
2023/04/20 04:59:36;;;;;;;7.60;3.15;;;3.90;99.90;;;;;;5018363;28;20089;-63
2023/04/20 05:02:03;;;;;;;2.95;2.65;;;4.00;99.90;;;;;;5020136;28;20080;-62
2023/04/20 05:04:29;;;;;;;7.65;2.72;;;4.10;99.90;;;;;;5021223;28;20513;-68
2023/04/20 05:06:56;;;;;;;6.78;3.13;;;4.10;99.90;;;;;;5020603;28;20053;-71
2023/04/20 05:09:23;;;;;;;4.70;2.78;;;4.20;99.90;;;;;;5018411;28;20140;-64
2023/04/20 05:11:50;;;;;;;4.28;2.65;;;4.30;99.90;;;;;;5016189;28;20085;-68
2023/04/20 05:14:17;;;;;;;4.25;2.38;;;4.30;99.90;;;;;;5010969;28;20065;-62
2023/04/20 05:16:44;;;;;;;6.20;2.80;;;4.40;99.90;;;;;;5014958;28;20057;-70
2023/04/20 05:19:11;;;;;;;7.78;3.05;;;4.50;99.90;;;;;;5008095;28;20049;-71
2023/04/20 05:21:38;;;;;;;7.45;3.28;;;4.60;99.90;;;;;;5004019;28;20523;-66
2023/04/20 05:24:05;;;;;;;6.35;2.60;;;4.70;99.90;;;;;;4998124;28;20536;-68
2023/04/20 05:26:32;;;;;;;7.00;3.10;;;4.80;99.90;;;;;;5000681;28;20056;-64
2023/04/20 05:28:59;;;;;;;7.50;2.83;;;4.90;99.90;;;;;;5003933;28;20075;-71
2023/04/20 05:31:26;;;;;;;5.60;3.08;;;5.00;99.90;;;;;;5014233;28;20422;-63
2023/04/20 05:33:52;;;;;;;11.93;3.20;;;5.00;99.90;;;;;;5021185;28;20076;-70
2023/04/20 05:36:19;;;;;;;6.47;4.60;;;5.10;99.90;;;;;;5013372;28;20065;-62
2023/04/20 05:38:46;;;;;;;6.72;2.97;;;5.10;99.90;;;;;;5003373;28;20052;-67
2023/04/20 05:41:13;;;;;;;4.22;2.30;;;5.20;99.90;;;;;;5010635;28;20569;-72
2023/04/20 05:43:40;;;;;;;5.13;2.72;;;5.30;99.90;;;;;;5020657;28;20064;-65
2023/04/20 05:46:07;;;;;;;11.23;3.05;;;5.40;99.90;;;;;;5003855;28;20475;-62
2023/04/20 05:48:34;;;;;;;15.77;3.20;;;5.50;99.90;;;;;;5023125;28;20091;-73
2023/04/20 05:51:01;;;;;;;8.00;2.47;;;5.60;99.90;;;;;;5023275;28;20050;-74
2023/04/20 05:53:28;;;;;;;4.85;2.72;;;5.70;99.90;;;;;;5020736;28;20049;-73
2023/04/20 05:55:55;;;;;;;6.22;3.88;;;5.80;99.90;;;;;;5002250;28;20236;-65
2023/04/20 05:58:22;;;;;;;9.55;3.47;;;6.00;99.90;;;;;;5016932;28;20454;-62
2023/04/20 06:00:48;;;;;;;4.25;2.67;;;6.00;99.90;;;;;;5015860;28;20052;-75
2023/04/20 06:03:15;;;;;;;9.00;3.35;;;6.10;99.90;;;;;;5006865;28;20167;-64
2023/04/20 06:05:43;;;;;;;8.52;4.15;;;6.10;99.90;;;;;;5019196;28;20050;-67
2023/04/20 06:08:10;;;;;;;7.70;3.53;;;6.20;99.90;;;;;;5017877;28;20057;-66
2023/04/20 06:10:37;;;;;;;10.48;3.00;;;6.20;99.90;;;;;;5012496;28;20055;-63
2023/04/20 06:13:03;;;;;;;5.90;2.55;;;6.30;99.90;;;;;;5012368;28;20411;-62
2023/04/20 06:15:30;;;;;;;7.97;4.03;;;6.40;99.90;;;;;;4998507;28;20399;-69
2023/04/20 06:17:58;;;;;;;6.75;2.97;;;6.50;99.90;;;;;;5001412;28;20129;-66
2023/04/20 06:20:24;;;;;;;4.95;3.22;;;6.60;99.90;;;;;;5003665;28;20077;-70
2023/04/20 06:22:52;;;;;;;6.32;4.25;;;6.70;99.90;;;;;;5007939;28;20045;-68
2023/04/20 06:25:18;;;;;;;11.18;3.88;;;6.70;99.90;;;;;;5017732;28;20136;-64
2023/04/20 06:27:46;;;;;;;6.88;3.10;;;6.90;99.90;;;;;;5010902;28;20064;-65
2023/04/20 06:30:15;;;;;;;12.13;4.88;;;7.00;99.90;;;;;;5019212;28;20077;-71
2023/04/20 06:32:41;;;;;;;11.98;3.47;;;7.10;99.90;;;;;;5015567;28;20133;-64
2023/04/20 06:35:09;;;;;;;4.70;3.05;;;7.30;99.90;;;;;;5007875;28;20062;-69
2023/04/20 06:37:36;;;;;;;5.72;2.75;;;7.40;99.90;;;;;;5011029;28;20860;-64
2023/04/20 06:40:06;;;;;;;10.98;3.13;;;7.50;99.90;;;;;;5017586;28;20053;-67
2023/04/20 06:42:35;;;;;;;16.38;3.50;;;7.60;99.90;;;;;;5016565;28;20053;-63
2023/04/20 06:45:02;;;;;;;10.32;3.85;;;7.70;99.90;;;;;;5017599;28;20088;-64
2023/04/20 06:47:32;;;;;;;13.75;4.60;;;7.80;99.90;;;;;;5020755;28;20083;-62
2023/04/20 06:50:01;;;;;;;9.20;3.38;;;7.90;99.90;;;;;;5015019;28;20558;-67
2023/04/20 06:52:29;;;;;;;12.88;4.38;;;8.00;99.90;;;;;;5017175;28;20080;-63
2023/04/20 06:54:58;;;;;;;11.07;3.45;;;8.10;99.90;;;;;;5018675;28;20049;-66
2023/04/20 06:57:25;;;;;;;11.38;3.05;;;8.20;99.90;;;;;;5012346;28;20057;-63
2023/04/20 06:59:52;;;;;;;7.63;4.30;;;8.30;99.90;;;;;;5015000;28;20144;-65
2023/04/20 07:02:19;;;;;;;4.15;3.13;;;8.30;99.90;;;;;;5008236;28;20149;-61
2023/04/20 07:04:46;;;;;;;5.20;3.67;;;8.50;99.90;;;;;;4995032;28;20606;-62
2023/04/20 07:07:13;;;;;;;3.28;2.75;;;8.60;99.90;;;;;;5007583;28;20037;-66
2023/04/20 07:09:40;;;;;;;5.90;2.72;;;8.60;99.90;;;;;;5020727;28;20140;-67
2023/04/20 07:12:08;;;;;;;11.07;4.47;;;8.70;99.90;;;;;;5000287;28;20060;-62
2023/04/20 07:14:35;;;;;;;6.35;3.20;;;8.80;99.90;;;;;;5002986;28;20697;-68
2023/04/20 07:17:01;;;;;;;7.55;3.70;;;9.00;99.90;;;;;;5012710;28;20049;-62
2023/04/20 07:19:28;;;;;;;8.80;3.55;;;9.10;99.90;;;;;;5021541;28;20149;-66
2023/04/20 07:21:56;;;;;;;4.15;3.25;;;9.20;99.90;;;;;;4999444;28;20136;-70
2023/04/20 07:24:23;;;;;;;7.53;3.25;;;9.30;99.90;;;;;;5021643;28;20418;-63
2023/04/20 07:26:50;;;;;;;8.25;2.80;;;9.30;99.90;;;;;;5013694;28;20087;-63
2023/04/20 07:29:17;;;;;;;6.25;3.50;;;9.40;99.90;;;;;;5005577;28;20160;-63
2023/04/20 07:31:44;;;;;;;8.60;5.28;;;9.50;99.90;;;;;;5014961;28;20053;-64
2023/04/20 07:34:11;;;;;;;10.93;3.42;;;9.50;99.90;;;;;;4995603;28;20140;-65
2023/04/20 07:36:38;;;;;;;6.10;2.95;;;9.50;99.90;;;;;;5005393;28;20134;-68
2023/04/20 07:39:05;;;;;;;8.43;3.58;;;9.40;99.90;;;;;;5014400;28;20053;-69
2023/04/20 07:41:32;;;;;;;11.93;4.07;;;9.40;99.90;;;;;;5004850;28;20255;-62
2023/04/20 07:43:59;;;;;;;9.50;2.78;;;9.40;99.90;;;;;;5014348;28;20354;-65
2023/04/20 07:46:27;;;;;;;9.80;3.17;;;9.20;99.90;;;;;;5007358;28;20148;-66
2023/04/20 07:48:54;;;;;;;7.28;3.25;;;9.20;99.90;;;;;;4991058;28;20050;-63
2023/04/20 07:51:20;;;;;;;4.47;3.13;;;9.00;99.90;;;;;;5007765;28;20476;-65
2023/04/20 07:53:47;;;;;;;11.68;3.88;;;8.80;99.90;;;;;;4997033;28;20511;-63
2023/04/20 07:56:14;;;;;;;5.18;2.58;;;8.60;99.90;;;;;;4999823;28;20045;-69
2023/04/20 07:58:41;;;;;;;4.78;2.83;;;8.70;99.90;;;;;;5005341;28;20488;-66
2023/04/20 08:01:08;;;;;;;13.35;3.65;;;8.80;99.90;;;;;;5014023;28;20457;-62
2023/04/20 08:03:35;;;;;;;7.38;4.70;;;8.90;99.90;;;;;;4999572;28;20061;-62
2023/04/20 08:06:02;;;;;;;7.05;3.53;;;9.10;99.90;;;;;;5012981;28;20049;-65
2023/04/20 08:08:30;;;;;;;6.13;2.90;;;9.20;99.90;;;;;;5014147;28;20091;-62
2023/04/20 08:11:00;;;;;;;13.35;3.45;;;9.40;99.90;;;;;;5017926;28;20484;-69
2023/04/20 08:13:27;;;;;;;5.07;2.00;;;9.50;99.90;;;;;;4999325;28;20104;-67
2023/04/20 08:15:54;;;;;;;4.18;2.05;;;9.30;99.90;;;;;;4998407;28;20790;-62
2023/04/20 08:18:21;;;;;;;6.70;2.97;;;9.10;99.90;;;;;;5012313;28;20050;-63
2023/04/20 08:20:50;;;;;;;5.18;3.20;;;9.10;99.90;;;;;;5019482;28;20486;-64
2023/04/20 08:23:16;;;;;;;5.53;3.13;;;9.10;99.90;;;;;;5011711;28;20077;-65
2023/04/20 08:25:43;;;;;;;8.85;2.83;;;9.10;99.90;;;;;;4995009;28;20054;-65
2023/04/20 08:28:10;;;;;;;9.23;2.97;;;9.10;99.90;;;;;;5012535;28;20420;-65
2023/04/20 08:30:45;;;;;;;5.40;2.88;;;9.10;99.90;;;;;;5009867;28;20079;-68
2023/04/20 08:33:12;;;;;;;3.90;2.90;;;9.00;99.90;;;;;;5018152;28;20045;-64
2023/04/20 08:35:39;;;;;;;4.57;2.63;;;8.90;99.90;;;;;;5005642;28;20065;-63
2023/04/20 08:38:06;;;;;;;8.68;2.92;;;8.80;99.90;;;;;;5004578;28;20442;-68
2023/04/20 08:40:35;;;;;;;5.00;3.45;;;8.90;99.90;;;;;;5022724;28;20560;-60
2023/04/20 08:43:02;;;;;;;3.72;3.15;;;9.00;99.90;;;;;;5017870;28;20134;-66
2023/04/20 08:45:30;;;;;;;6.80;2.78;;;9.10;99.90;;;;;;5006875;28;20060;-61
2023/04/20 08:48:08;;;;;;;10.60;3.55;;;9.20;99.90;;;;;;5015828;28;20076;-71
2023/04/20 08:50:39;;;;;;;6.72;2.97;;;9.30;99.90;;;;;;5006798;28;20076;-62
2023/04/20 08:53:06;;;;;;;10.20;3.22;;;9.30;99.90;;;;;;5021026;28;20065;-62
2023/04/20 08:55:33;;;;;;;9.82;3.90;;;9.30;99.90;;;;;;5021845;28;20060;-65
2023/04/20 08:58:00;;;;;;;11.18;2.95;;;9.30;99.90;;;;;;5011286;28;20062;-68
2023/04/20 09:00:27;;;;;;;27.40;3.53;;;9.40;99.90;;;;;;5020561;28;20041;-66
2023/04/20 09:02:54;;;;;;;13.48;3.38;;;9.30;99.90;;;;;;5010145;28;20150;-66
2023/04/20 09:05:30;;;;;;;5.10;3.08;;;9.30;99.90;;;;;;4998392;28;20492;-62
2023/04/20 09:07:59;;;;;;;9.02;3.08;;;9.40;99.90;;;;;;5017606;28;20056;-64
2023/04/20 09:10:37;;;;;;;8.90;2.97;;;9.50;99.90;;;;;;5014354;28;20133;-62
2023/04/20 09:13:04;;;;;;;13.57;3.10;;;9.60;99.90;;;;;;4997423;28;20054;-67
2023/04/20 09:15:31;;;;;;;12.32;4.38;;;9.60;99.90;;;;;;5015613;28;20076;-69
2023/04/20 09:17:58;;;;;;;17.00;2.90;;;9.50;99.90;;;;;;5013262;28;20617;-73
2023/04/20 09:20:30;;;;;;;11.25;3.30;;;9.70;99.90;;;;;;5009986;28;20045;-65
2023/04/20 09:22:57;;;;;;;6.88;2.90;;;9.80;99.90;;;;;;5006896;28;20593;-66
2023/04/20 09:25:27;;;;;;;5.50;3.53;;;9.90;99.90;;;;;;5031064;28;20052;-71
2023/04/20 09:27:59;;;;;;;7.43;2.83;;;9.80;99.90;;;;;;5002982;28;20049;-66
2023/04/20 09:30:40;;;;;;;6.20;3.20;;;9.90;99.90;;;;;;5005533;28;20285;-60
2023/04/20 09:33:09;;;;;;;3.17;2.20;;;10.00;99.90;;;;;;5007596;28;20100;-66
2023/04/20 09:35:41;;;;;;;5.28;2.40;;;10.10;99.90;;;;;;5014528;28;20265;-63
2023/04/20 09:38:09;;;;;;;9.93;3.53;;;10.30;99.90;;;;;;5007337;28;20309;-68
2023/04/20 09:40:37;;;;;;;9.43;2.83;;;10.40;99.90;;;;;;5022409;28;20490;-65
2023/04/20 09:43:17;;;;;;;10.73;3.38;;;10.50;99.90;;;;;;5018906;28;20132;-69
2023/04/20 09:45:44;;;;;;;10.95;4.97;;;10.40;99.90;;;;;;5013770;28;20054;-60
2023/04/20 09:48:17;;;;;;;6.85;2.42;;;10.30;99.90;;;;;;5018091;28;20530;-63
2023/04/20 09:50:45;;;;;;;11.15;3.15;;;10.40;99.90;;;;;;5018737;28;20053;-65
2023/04/20 09:53:17;;;;;;;3.17;2.08;;;10.40;99.90;;;;;;5010820;28;20061;-71
2023/04/20 09:55:48;;;;;;;9.23;3.03;;;10.50;99.90;;;;;;5013463;28;20084;-63
2023/04/20 09:58:19;;;;;;;6.78;2.83;;;10.40;99.90;;;;;;5000095;28;20515;-60
2023/04/20 10:00:47;;;;;;;4.93;2.60;;;10.30;99.90;;;;;;4999205;28;20050;-62
2023/04/20 10:03:18;;;;;;;5.35;2.55;;;10.20;99.90;;;;;;5010028;28;20054;-65
2023/04/20 10:05:46;;;;;;;2.65;2.38;;;10.00;99.90;;;;;;5017695;28;20709;-65
2023/04/20 10:08:13;;;;;;;9.40;3.13;;;10.00;99.90;;;;;;5012824;28;20137;-62
2023/04/20 10:10:47;;;;;;;5.45;2.75;;;10.20;99.90;;;;;;5011727;28;20084;-61
2023/04/20 10:13:18;;;;;;;6.18;2.08;;;10.30;99.90;;;;;;5020427;28;20266;-63
2023/04/20 10:15:45;;;;;;;7.72;3.10;;;10.30;99.90;;;;;;4998159;28;20136;-62
2023/04/20 10:18:23;;;;;;;22.08;5.47;;;10.60;99.90;;;;;;4995557;28;20078;-65
2023/04/20 10:21:02;;;;;;;8.25;4.70;;;10.80;99.90;;;;;;5007374;28;20775;-62
2023/04/20 10:23:29;;;;;;;5.97;2.97;;;11.00;99.90;;;;;;4999540;28;20066;-63
2023/04/20 10:25:59;;;;;;;7.68;3.35;;;11.20;99.90;;;;;;4997046;28;20042;-71
2023/04/20 10:28:46;;;;;;;7.80;2.78;;;11.30;99.90;;;;;;5021991;28;20049;-62
2023/04/20 10:31:15;;;;;;;11.88;3.83;;;11.40;99.90;;;;;;5018233;28;20526;-69
2023/04/20 10:33:55;;;;;;;7.90;3.40;;;11.60;99.90;;;;;;5011199;28;20057;-64
2023/04/20 10:36:30;;;;;;;9.57;3.20;;;11.70;99.90;;;;;;5020343;28;20037;-62
2023/04/20 10:38:57;;;;;;;8.68;2.88;;;11.90;99.90;;;;;;5012103;28;20085;-63
2023/04/20 10:41:24;;;;;;;7.65;3.10;;;11.90;99.90;;;;;;4994548;28;20046;-63
2023/04/20 10:43:51;;;;;;;14.77;3.38;;;12.00;99.90;;;;;;4994420;28;20052;-71
2023/04/20 10:46:23;;;;;;;9.80;3.00;;;12.10;99.90;;;;;;4998370;28;20044;-65
2023/04/20 10:48:53;;;;;;;8.27;3.83;;;12.20;99.90;;;;;;5005411;28;20050;-65
2023/04/20 10:51:20;;;;;;;25.17;4.97;;;12.20;99.90;;;;;;4999760;28;20909;-63
2023/04/20 10:54:03;;;;;;;16.88;4.97;;;12.20;99.90;;;;;;5013713;28;20604;-61
2023/04/20 10:56:50;;;;;;;17.55;3.80;;;12.20;99.90;;;;;;5020985;28;20057;-67
2023/04/20 10:59:22;;;;;;;17.42;3.25;;;12.40;99.90;;;;;;5018468;28;20053;-63
2023/04/20 11:01:50;;;;;;;13.32;3.60;;;12.70;99.90;;;;;;5003146;28;20393;-66
2023/04/20 11:04:22;;;;;;;12.93;3.13;;;12.80;99.90;;;;;;5011718;28;20052;-65
2023/04/20 11:06:49;;;;;;;11.77;4.85;;;12.90;99.90;;;;;;5010404;28;20063;-63
2023/04/20 11:09:22;;;;;;;7.35;2.60;;;13.20;99.90;;;;;;5009255;28;20050;-61
2023/04/20 11:12:02;;;;;;;4.47;3.38;;;13.80;99.90;;;;;;5015214;28;20464;-62
2023/04/20 11:14:31;;;;;;;4.43;3.40;;;14.60;94.80;;;;;;5009836;28;20088;-61
2023/04/20 11:16:58;;;;;;;20.85;4.88;;;14.80;93.90;;;;;;5001398;28;20529;-64
2023/04/20 11:19:33;;;;;;;14.63;4.15;;;15.10;93.30;;;;;;5011375;28;20076;-61
2023/04/20 11:22:02;;;;;;;14.50;5.05;;;15.10;92.20;;;;;;5013138;28;20054;-68
2023/04/20 11:24:32;;;;;;;12.95;3.67;;;15.20;93.10;;;;;;5012692;28;20045;-66
2023/04/20 11:27:01;;;;;;;5.72;3.42;;;15.30;93.50;;;;;;5003791;28;20498;-70
2023/04/20 11:29:35;;;;;;;3.80;3.28;;;15.60;92.10;;;;;;5016806;28;20056;-62
2023/04/20 11:32:05;;;;;;;3.67;3.38;;;15.90;90.00;;;;;;5014262;28;20045;-71
2023/04/20 11:34:35;;;;;;;8.45;3.13;;;16.00;90.30;;;;;;5014663;28;20045;-63
2023/04/20 11:37:06;;;;;;;5.60;3.50;;;16.20;88.70;;;;;;5016219;28;20058;-60
2023/04/20 11:39:33;;;;;;;4.18;3.20;;;16.30;88.50;;;;;;5002298;28;20144;-69
2023/04/20 11:42:00;;;;;;;11.10;3.92;;;16.50;89.60;;;;;;5013949;28;20451;-67
2023/04/20 11:44:27;;;;;;;5.43;2.88;;;16.40;88.60;;;;;;5019182;28;20065;-64
2023/04/20 11:46:58;;;;;;;4.40;3.38;;;16.30;86.60;;;;;;5021171;28;20049;-63
2023/04/20 11:49:27;;;;;;;6.20;3.45;;;16.40;85.50;;;;;;5000199;28;20412;-63
2023/04/20 11:51:54;;;;;;;4.95;2.65;;;16.40;84.70;;;;;;5011692;28;20059;-59
2023/04/20 11:54:22;;;;;;;7.18;2.92;;;16.40;84.10;;;;;;5015684;28;20144;-61
2023/04/20 11:56:50;;;;;;;6.97;3.95;;;16.50;85.60;;;;;;5023109;28;20041;-58
2023/04/20 11:59:18;;;;;;;3.80;3.28;;;16.60;84.70;;;;;;5007323;28;20844;-62
2023/04/20 12:01:46;;;;;;;5.00;2.83;;;16.80;83.70;;;;;;5010196;28;20049;-61
2023/04/20 12:04:14;;;;;;;4.65;2.97;;;16.90;82.50;;;;;;5015536;28;20447;-66
2023/04/20 12:06:41;;;;;;;8.10;3.42;;;17.00;82.60;;;;;;5004920;28;20049;-59
2023/04/20 12:09:08;;;;;;;5.35;3.28;;;17.00;83.10;;;;;;5020091;28;20085;-63
2023/04/20 12:11:35;;;;;;;3.97;2.88;;;17.00;79.60;;;;;;5014068;28;20050;-66
2023/04/20 12:14:03;;;;;;;2.95;2.50;;;17.00;79.30;;;;;;5012863;28;20050;-67
2023/04/20 12:16:30;;;;;;;3.58;2.75;;;17.10;79.70;;;;;;5016374;28;20046;-62
2023/04/20 12:18:57;;;;;;;8.02;2.75;;;17.20;80.30;;;;;;5012512;28;20042;-60
2023/04/20 12:21:24;;;;;;;4.03;2.95;;;17.10;81.60;;;;;;5001191;28;20047;-59
2023/04/20 12:23:51;;;;;;;4.47;3.47;;;17.00;80.80;;;;;;4992186;28;20088;-59
2023/04/20 12:26:18;;;;;;;8.90;3.72;;;17.00;79.40;;;;;;5006225;28;20042;-58
2023/04/20 12:28:45;;;;;;;6.50;3.20;;;17.00;78.90;;;;;;5000670;28;20053;-64
2023/04/20 12:31:12;;;;;;;6.85;3.10;;;17.20;80.50;;;;;;5001858;28;20042;-60
2023/04/20 12:33:39;;;;;;;5.18;3.45;;;17.30;81.20;;;;;;4989568;28;20681;-62
2023/04/20 12:36:06;;;;;;;3.42;2.53;;;17.20;80.90;;;;;;5010875;28;20068;-62
2023/04/20 12:38:33;;;;;;;13.20;4.45;;;17.30;78.70;;;;;;4997076;28;20445;-59
2023/04/20 12:40:59;;;;;;;10.55;3.83;;;17.50;81.20;;;;;;5010257;28;20050;-62
2023/04/20 12:43:27;;;;;;;5.75;2.63;;;17.60;79.20;;;;;;5000852;28;20827;-61
2023/04/20 12:45:54;;;;;;;4.55;2.85;;;17.80;78.00;;;;;;5011842;28;20419;-63
2023/04/20 12:48:21;;;;;;;6.72;2.75;;;17.80;78.50;;;;;;5002214;28;20137;-61
2023/04/20 12:50:49;;;;;;;13.40;4.03;;;17.70;77.00;;;;;;5013818;28;20053;-61
2023/04/20 12:53:16;;;;;;;4.07;2.75;;;17.70;76.70;;;;;;5019714;28;20099;-59
2023/04/20 12:55:43;;;;;;;12.52;4.07;;;17.70;78.80;;;;;;5012647;28;20061;-63
2023/04/20 12:58:10;;;;;;;18.25;3.55;;;17.70;80.70;;;;;;5019669;28;20045;-60
2023/04/20 13:00:37;;;;;;;5.38;2.78;;;17.80;80.10;;;;;;5021672;28;20469;-60